Time;durP1;ratioP1;P1;durP2;ratioP2;P2;SDS_P1;SDS_P2;PMS_P1;PMS_P2;Temp;Humidity;BMP_temperature;BMP_pressure;BME280_temperature;BME280_humidity;BME280_pressure;Samples;Min_cycle;Max_cycle;Signal;HPM_P1;HPM_P2
2022/08/10 00:00:19;;;;;;;3.63;2.73;;;;;;;;;;5073061;28;20200;-69
2022/08/10 00:02:46;;;;;;;3.87;2.80;;;;;;;;;;5070766;28;20177;-70
2022/08/10 00:05:12;;;;;;;3.70;2.60;;;;;;;;;;5065660;28;20717;-69
2022/08/10 00:07:38;;;;;;;4.70;2.47;;;;;;;;;;5056262;28;20174;-69
2022/08/10 00:10:05;;;;;;;3.07;2.60;;;;;;;;;;5052927;28;20182;-69
2022/08/10 00:12:31;;;;;;;3.87;2.60;;;;;;;;;;5052767;28;20643;-69
2022/08/10 00:14:58;;;;;;;3.13;2.60;;;;;;;;;;5059842;28;20188;-69
2022/08/10 00:17:25;;;;;;;9.73;2.43;;;;;;;;;;5070312;28;20364;-69
2022/08/10 00:19:51;;;;;;;5.13;2.43;;;;;;;;;;5068404;28;20205;-69
2022/08/10 00:22:17;;;;;;;2.97;2.30;;;;;;;;;;5072466;28;20181;-69
2022/08/10 00:24:43;;;;;;;2.40;2.17;;;;;;;;;;5073155;28;20177;-69
2022/08/10 00:27:10;;;;;;;3.13;2.47;;;;;;;;;;5072644;28;20189;-69
2022/08/10 00:29:36;;;;;;;4.60;2.50;;;;;;;;;;5065785;28;20184;-69
2022/08/10 00:32:02;;;;;;;3.00;2.50;;;;;;;;;;5066391;28;20181;-69
2022/08/10 00:34:30;;;;;;;3.57;2.57;;;;;;;;;;5056932;28;20266;-69
2022/08/10 00:36:56;;;;;;;3.43;2.53;;;;;;;;;;5072331;28;20233;-69
2022/08/10 00:39:23;;;;;;;2.50;2.30;;;;;;;;;;5072575;28;20294;-69
2022/08/10 00:41:49;;;;;;;5.37;2.60;;;;;;;;;;5071809;28;20177;-69
2022/08/10 00:44:15;;;;;;;4.00;2.53;;;;;;;;;;5070875;28;20666;-69
2022/08/10 00:46:41;;;;;;;4.67;2.30;;;;;;;;;;5071870;28;20232;-69
2022/08/10 00:49:07;;;;;;;4.63;2.33;;;;;;;;;;5064326;28;20240;-69
2022/08/10 00:51:33;;;;;;;3.00;2.50;;;;;;;;;;5057224;28;20239;-70
2022/08/10 00:54:00;;;;;;;2.93;2.40;;;;;;;;;;5072307;28;20589;-69
2022/08/10 00:56:26;;;;;;;2.70;2.40;;;;;;;;;;5072365;28;20268;-69
2022/08/10 00:58:52;;;;;;;3.90;2.40;;;;;;;;;;5071044;28;20211;-69
2022/08/10 01:01:19;;;;;;;6.57;2.40;;;;;;;;;;5062926;28;20568;-69
2022/08/10 01:03:45;;;;;;;2.77;2.10;;;;;;;;;;5052714;28;20246;-69
2022/08/10 01:06:31;;;;;;;2.53;2.20;;;;;;;;;;5070632;28;20200;-69
2022/08/10 01:09:04;;;;;;;4.67;2.50;;;;;;;;;;5057399;28;20674;-69
2022/08/10 01:11:43;;;;;;;3.23;2.50;;;;;;;;;;5059583;28;20205;-69
2022/08/10 01:14:24;;;;;;;2.63;2.27;;;;;;;;;;5065010;28;20238;-69
2022/08/10 01:16:53;;;;;;;2.70;2.50;;;;;;;;;;5054255;28;20216;-70
2022/08/10 01:19:38;;;;;;;5.60;2.40;;;;;;;;;;5063069;28;20690;-69
2022/08/10 01:22:12;;;;;;;2.57;2.37;;;;;;;;;;5066359;28;20192;-69
2022/08/10 01:24:50;;;;;;;3.23;2.37;;;;;;;;;;5068695;28;20190;-69
2022/08/10 01:27:33;;;;;;;2.93;2.40;;;;;;;;;;5050833;28;20212;-69
2022/08/10 01:30:09;;;;;;;3.87;2.37;;;;;;;;;;5064382;28;20219;-69
2022/08/10 01:32:47;;;;;;;7.07;2.50;;;;;;;;;;5069718;28;20213;-69
2022/08/10 01:35:19;;;;;;;2.60;2.37;;;;;;;;;;5071424;28;20201;-69
2022/08/10 01:37:53;;;;;;;3.10;2.43;;;;;;;;;;5071026;28;20566;-69
2022/08/10 01:40:22;;;;;;;4.27;2.30;;;;;;;;;;5071184;28;20613;-69
2022/08/10 01:42:49;;;;;;;4.60;2.30;;;;;;;;;;5063762;28;20173;-69
2022/08/10 01:45:18;;;;;;;2.60;2.40;;;;;;;;;;5057296;28;20196;-69
2022/08/10 01:50:33;;;;;;;5.37;2.37;;;;;;;;;;5054513;28;20186;-69
2022/08/10 01:53:03;;;;;;;3.83;2.50;;;;;;;;;;5057729;28;20186;-69
2022/08/10 01:55:30;;;;;;;3.63;2.40;;;;;;;;;;5061573;28;20246;-69
2022/08/10 01:57:57;;;;;;;3.63;2.27;;;;;;;;;;5059282;28;20189;-69
2022/08/10 02:00:25;;;;;;;3.63;2.20;;;;;;;;;;5070814;28;20269;-69
2022/08/10 02:02:52;;;;;;;3.40;2.37;;;;;;;;;;5061693;28;20612;-69
2022/08/10 02:05:19;;;;;;;3.33;2.30;;;;;;;;;;5071090;28;20200;-69
2022/08/10 02:07:46;;;;;;;3.00;2.10;;;;;;;;;;5070791;28;20729;-69
2022/08/10 02:10:14;;;;;;;3.17;2.50;;;;;;;;;;5070919;28;20177;-69
2022/08/10 02:12:41;;;;;;;3.80;2.50;;;;;;;;;;5067622;28;20188;-69
2022/08/10 02:15:14;;;;;;;5.93;2.37;;;;;;;;;;5069944;28;20222;-69
2022/08/10 02:17:43;;;;;;;3.93;2.47;;;;;;;;;;5069300;28;20177;-69
2022/08/10 02:20:14;;;;;;;2.47;2.27;;;;;;;;;;5070839;28;20594;-69
2022/08/10 02:22:42;;;;;;;4.83;2.40;;;;;;;;;;5070344;28;20187;-70
2022/08/10 02:25:09;;;;;;;6.00;2.60;;;;;;;;;;5070419;28;20177;-69
2022/08/10 02:27:35;;;;;;;3.87;2.23;;;;;;;;;;5066365;28;20656;-69
2022/08/10 02:30:03;;;;;;;3.57;2.40;;;;;;;;;;5068407;28;20181;-69
2022/08/10 02:32:29;;;;;;;4.40;2.70;;;;;;;;;;5068372;28;20184;-69
2022/08/10 02:34:56;;;;;;;3.73;2.60;;;;;;;;;;5070782;28;20177;-70
2022/08/10 02:37:24;;;;;;;3.63;2.20;;;;;;;;;;5064997;28;20181;-70
2022/08/10 02:39:50;;;;;;;3.00;2.20;;;;;;;;;;5057438;28;20294;-69
2022/08/10 02:42:43;;;;;;;4.47;2.43;;;;;;;;;;5066430;28;20575;-69
2022/08/10 02:45:12;;;;;;;5.37;2.40;;;;;;;;;;5060284;28;20192;-69
2022/08/10 02:47:42;;;;;;;2.67;2.47;;;;;;;;;;5058516;28;20173;-70
2022/08/10 02:50:19;;;;;;;4.20;2.50;;;;;;;;;;5069032;28;20610;-69
2022/08/10 02:52:47;;;;;;;3.37;2.43;;;;;;;;;;5073809;28;20212;-69
2022/08/10 02:55:19;;;;;;;3.93;2.10;;;;;;;;;;5074448;28;20205;-69
2022/08/10 02:57:49;;;;;;;4.23;2.60;;;;;;;;;;5074581;28;20181;-69
2022/08/10 03:00:15;;;;;;;3.03;2.40;;;;;;;;;;5074295;28;20228;-69
2022/08/10 03:02:45;;;;;;;2.37;2.17;;;;;;;;;;5062745;28;20185;-69
2022/08/10 03:05:14;;;;;;;3.37;2.30;;;;;;;;;;5073968;28;20256;-70
2022/08/10 03:07:53;;;;;;;6.10;2.60;;;;;;;;;;5072306;28;20177;-70
2022/08/10 03:10:21;;;;;;;2.47;2.27;;;;;;;;;;5073905;28;20611;-70
2022/08/10 03:12:50;;;;;;;2.60;2.40;;;;;;;;;;5072862;28;20990;-70
2022/08/10 03:15:18;;;;;;;4.70;2.33;;;;;;;;;;5074486;28;20199;-70
2022/08/10 03:17:46;;;;;;;2.87;2.50;;;;;;;;;;5065430;28;20265;-70
2022/08/10 03:20:13;;;;;;;4.07;2.40;;;;;;;;;;5073559;28;20561;-70
2022/08/10 03:22:40;;;;;;;2.63;2.20;;;;;;;;;;5071363;28;20263;-70
2022/08/10 03:25:07;;;;;;;2.90;2.20;;;;;;;;;;5073838;28;20654;-70
2022/08/10 03:27:34;;;;;;;5.57;2.50;;;;;;;;;;5073764;28;20181;-70
2022/08/10 03:30:00;;;;;;;4.10;2.50;;;;;;;;;;5073290;28;20223;-70
2022/08/10 03:32:27;;;;;;;2.80;2.60;;;;;;;;;;5059114;28;20221;-70
2022/08/10 03:34:53;;;;;;;2.47;2.27;;;;;;;;;;5064732;28;20199;-70
2022/08/10 03:37:19;;;;;;;5.27;2.60;;;;;;;;;;5066407;28;20212;-70
2022/08/10 03:39:45;;;;;;;2.80;2.30;;;;;;;;;;5073506;28;20209;-70
2022/08/10 03:42:12;;;;;;;4.27;2.30;;;;;;;;;;5070703;28;20185;-70
2022/08/10 03:44:40;;;;;;;2.47;2.30;;;;;;;;;;5053760;28;20232;-70
2022/08/10 03:47:07;;;;;;;5.47;2.40;;;;;;;;;;5059639;28;20595;-70
2022/08/10 03:49:36;;;;;;;6.53;2.47;;;;;;;;;;5068473;28;20185;-70
2022/08/10 03:52:05;;;;;;;2.60;2.40;;;;;;;;;;5069407;28;20185;-70
2022/08/10 03:54:32;;;;;;;6.43;2.43;;;;;;;;;;5072826;28;20185;-70
2022/08/10 03:56:58;;;;;;;2.40;2.20;;;;;;;;;;5067492;28;20209;-70
2022/08/10 03:59:25;;;;;;;2.83;2.50;;;;;;;;;;5053653;28;20206;-70
2022/08/10 04:01:51;;;;;;;2.60;2.40;;;;;;;;;;5059319;28;20735;-70
2022/08/10 04:04:21;;;;;;;3.80;2.47;;;;;;;;;;5063841;28;20185;-70
2022/08/10 04:06:47;;;;;;;3.60;2.37;;;;;;;;;;5064406;28;20263;-70
2022/08/10 04:09:15;;;;;;;2.80;2.53;;;;;;;;;;5063384;28;20189;-70
2022/08/10 04:11:41;;;;;;;2.40;2.20;;;;;;;;;;5061150;28;20228;-70
2022/08/10 04:14:07;;;;;;;3.53;2.30;;;;;;;;;;5058752;28;20192;-70
2022/08/10 04:16:33;;;;;;;4.27;2.50;;;;;;;;;;5064556;28;20617;-70
2022/08/10 04:19:00;;;;;;;8.27;2.50;;;;;;;;;;5060534;28;20210;-70
2022/08/10 04:21:29;;;;;;;5.03;2.60;;;;;;;;;;5062517;28;20698;-70
2022/08/10 04:23:55;;;;;;;4.83;2.73;;;;;;;;;;5058055;28;20189;-70
2022/08/10 04:26:22;;;;;;;2.60;2.40;;;;;;;;;;5058835;28;20189;-70
2022/08/10 04:28:48;;;;;;;4.10;2.27;;;;;;;;;;5058949;28;20182;-70
2022/08/10 04:31:16;;;;;;;4.30;2.40;;;;;;;;;;5054796;28;20182;-70
2022/08/10 04:33:48;;;;;;;3.63;2.40;;;;;;;;;;5062142;28;20189;-70
2022/08/10 04:36:16;;;;;;;3.00;2.57;;;;;;;;;;5066063;28;20212;-70
2022/08/10 04:38:43;;;;;;;5.70;2.60;;;;;;;;;;5070934;28;20633;-70
2022/08/10 04:41:09;;;;;;;3.07;2.53;;;;;;;;;;5072229;28;20231;-70
2022/08/10 04:43:35;;;;;;;3.23;2.30;;;;;;;;;;5059088;28;20199;-70
2022/08/10 04:46:02;;;;;;;3.07;2.60;;;;;;;;;;5062302;28;20543;-70
2022/08/10 04:48:28;;;;;;;4.13;2.53;;;;;;;;;;5071268;28;20196;-70
2022/08/10 04:50:54;;;;;;;2.60;2.40;;;;;;;;;;5072021;28;20181;-70
2022/08/10 04:53:20;;;;;;;2.63;2.43;;;;;;;;;;5072725;28;20173;-70
2022/08/10 04:55:46;;;;;;;2.73;2.37;;;;;;;;;;5072401;28;20190;-70
2022/08/10 04:58:13;;;;;;;2.93;2.40;;;;;;;;;;5072477;28;20184;-70
2022/08/10 05:00:39;;;;;;;3.00;2.70;;;;;;;;;;5068091;28;20198;-70
2022/08/10 05:03:05;;;;;;;4.60;2.53;;;;;;;;;;5050995;28;20186;-70
2022/08/10 05:05:31;;;;;;;2.73;2.47;;;;;;;;;;5060936;28;20201;-70
2022/08/10 05:07:57;;;;;;;4.47;2.40;;;;;;;;;;5072009;28;20682;-70
2022/08/10 05:10:24;;;;;;;3.30;2.47;;;;;;;;;;5072124;28;20178;-70
2022/08/10 05:12:50;;;;;;;2.73;2.40;;;;;;;;;;5071546;28;20185;-70
2022/08/10 05:15:17;;;;;;;4.70;2.67;;;;;;;;;;5070716;28;20700;-70
2022/08/10 05:17:44;;;;;;;4.33;2.37;;;;;;;;;;5071653;28;20227;-70
2022/08/10 05:20:11;;;;;;;4.07;2.57;;;;;;;;;;5059848;28;20657;-70
2022/08/10 05:22:41;;;;;;;3.43;2.40;;;;;;;;;;5067105;28;20220;-70
2022/08/10 05:25:09;;;;;;;3.87;2.40;;;;;;;;;;5060245;28;20173;-70
2022/08/10 05:27:35;;;;;;;2.97;2.30;;;;;;;;;;5055056;28;20177;-70
2022/08/10 05:30:01;;;;;;;2.83;2.30;;;;;;;;;;5057100;28;20285;-70
2022/08/10 05:32:27;;;;;;;2.70;2.50;;;;;;;;;;5065357;28;20177;-70
2022/08/10 05:34:54;;;;;;;3.13;2.50;;;;;;;;;;5053124;28;20200;-69
2022/08/10 05:37:20;;;;;;;3.17;2.50;;;;;;;;;;5069125;28;20185;-69
2022/08/10 05:39:48;;;;;;;3.03;2.60;;;;;;;;;;5070808;28;20232;-69
2022/08/10 05:42:16;;;;;;;3.13;2.83;;;;;;;;;;5068983;28;20268;-69
2022/08/10 05:44:43;;;;;;;3.40;2.97;;;;;;;;;;5051177;28;20189;-69
2022/08/10 05:47:10;;;;;;;5.13;3.33;;;;;;;;;;5064981;28;20311;-69
2022/08/10 05:49:36;;;;;;;7.33;4.73;;;;;;;;;;5054504;28;20200;-69
2022/08/10 05:52:02;;;;;;;5.97;3.47;;;;;;;;;;5058075;28;20211;-69
2022/08/10 05:54:29;;;;;;;4.20;2.60;;;;;;;;;;5057320;28;20177;-69
2022/08/10 05:56:55;;;;;;;2.70;2.50;;;;;;;;;;5057275;28;20565;-69
2022/08/10 05:59:21;;;;;;;3.90;2.60;;;;;;;;;;5063611;28;20189;-69
2022/08/10 06:01:48;;;;;;;3.73;2.50;;;;;;;;;;5059752;28;20659;-69
2022/08/10 06:04:22;;;;;;;6.63;2.70;;;;;;;;;;5053467;28;20193;-69
2022/08/10 06:06:51;;;;;;;3.03;2.70;;;;;;;;;;5065002;28;20571;-70
2022/08/10 06:09:18;;;;;;;6.37;2.43;;;;;;;;;;5070984;28;20221;-69
2022/08/10 06:11:45;;;;;;;3.93;2.57;;;;;;;;;;5070591;28;20213;-74
2022/08/10 06:16:59;;;;;;;2.70;2.50;;;;;;;;;;5071410;28;20284;-75
2022/08/10 06:19:26;;;;;;;3.97;2.50;;;;;;;;;;5067008;28;20952;-74
2022/08/10 06:21:56;;;;;;;3.50;2.33;;;;;;;;;;5060771;28;20189;-74
2022/08/10 06:24:23;;;;;;;2.60;2.40;;;;;;;;;;5068878;28;20219;-74
2022/08/10 06:26:49;;;;;;;3.10;2.30;;;;;;;;;;5070144;28;20237;-77
2022/08/10 06:29:16;;;;;;;5.53;2.50;;;;;;;;;;5066377;28;20181;-77
2022/08/10 06:31:43;;;;;;;4.27;2.50;;;;;;;;;;5071642;28;20804;-76
2022/08/10 06:34:10;;;;;;;3.67;2.57;;;;;;;;;;5071631;28;20235;-78
2022/08/10 06:36:37;;;;;;;2.50;2.30;;;;;;;;;;5061524;28;20208;-75
2022/08/10 06:39:03;;;;;;;5.67;2.40;;;;;;;;;;5070900;28;20228;-74
2022/08/10 06:41:33;;;;;;;7.13;2.37;;;;;;;;;;5068621;28;20177;-75
2022/08/10 06:44:01;;;;;;;2.77;2.27;;;;;;;;;;5067530;28;20211;-74
2022/08/10 06:46:28;;;;;;;3.07;2.50;;;;;;;;;;5058126;28;20608;-70
2022/08/10 06:48:58;;;;;;;2.60;2.40;;;;;;;;;;5051650;28;20185;-70
2022/08/10 06:51:26;;;;;;;4.60;2.30;;;;;;;;;;5064566;28;20189;-70
2022/08/10 06:53:54;;;;;;;2.90;2.40;;;;;;;;;;5061905;28;21989;-70
2022/08/10 06:56:22;;;;;;;2.63;2.27;;;;;;;;;;5066987;28;20213;-70
2022/08/10 06:58:50;;;;;;;3.57;2.40;;;;;;;;;;5065097;28;20215;-70
2022/08/10 07:01:19;;;;;;;3.27;2.47;;;;;;;;;;5063969;28;20219;-70
2022/08/10 07:03:56;;;;;;;2.50;2.30;;;;;;;;;;5068337;28;20866;-69
2022/08/10 07:06:22;;;;;;;2.60;2.40;;;;;;;;;;5065849;28;20197;-69
2022/08/10 07:08:50;;;;;;;3.67;2.50;;;;;;;;;;5066974;28;20192;-70
2022/08/10 07:11:18;;;;;;;4.13;2.57;;;;;;;;;;5062851;28;20199;-69
2022/08/10 07:13:45;;;;;;;5.30;2.33;;;;;;;;;;5060783;28;20569;-70
2022/08/10 07:16:12;;;;;;;4.73;2.40;;;;;;;;;;5062352;28;20328;-70
2022/08/10 07:18:39;;;;;;;4.37;2.40;;;;;;;;;;5058975;28;20235;-69
2022/08/10 07:21:06;;;;;;;3.70;2.17;;;;;;;;;;5063184;28;20726;-70
2022/08/10 07:23:34;;;;;;;3.17;2.40;;;;;;;;;;5060038;28;21012;-70
2022/08/10 07:26:01;;;;;;;2.83;2.20;;;;;;;;;;5067227;28;20193;-70
2022/08/10 07:28:28;;;;;;;2.63;2.17;;;;;;;;;;5068227;28;20182;-70
2022/08/10 07:30:56;;;;;;;3.20;2.40;;;;;;;;;;5068119;28;20256;-70
2022/08/10 07:33:23;;;;;;;4.37;2.10;;;;;;;;;;5071320;28;20173;-70
2022/08/10 07:35:49;;;;;;;5.60;2.47;;;;;;;;;;5071248;28;20276;-70
2022/08/10 07:38:21;;;;;;;7.23;2.47;;;;;;;;;;5066404;28;20196;-70
2022/08/10 07:40:50;;;;;;;4.50;2.20;;;;;;;;;;5069829;28;20213;-70
2022/08/10 07:43:17;;;;;;;2.53;2.03;;;;;;;;;;5070404;28;20620;-70
2022/08/10 07:45:44;;;;;;;2.53;2.00;;;;;;;;;;5072248;28;20242;-70
2022/08/10 07:48:22;;;;;;;3.10;2.40;;;;;;;;;;5072479;28;20177;-70
2022/08/10 07:50:48;;;;;;;2.13;2.03;;;;;;;;;;5071881;28;20252;-70
2022/08/10 07:53:18;;;;;;;4.80;2.03;;;;;;;;;;5069514;28;20268;-70
2022/08/10 07:55:46;;;;;;;3.53;1.73;;;;;;;;;;5070475;28;20273;-70
2022/08/10 07:58:15;;;;;;;3.90;2.10;;;;;;;;;;5069394;28;20612;-70
2022/08/10 08:00:43;;;;;;;4.20;2.40;;;;;;;;;;5066050;28;20247;-71
2022/08/10 08:03:11;;;;;;;2.03;1.90;;;;;;;;;;5072173;28;20764;-70
2022/08/10 08:05:38;;;;;;;2.33;1.80;;;;;;;;;;5069520;28;20201;-69
2022/08/10 08:08:05;;;;;;;2.30;2.10;;;;;;;;;;5070390;28;20681;-70
2022/08/10 08:10:32;;;;;;;3.07;1.70;;;;;;;;;;5070380;28;20569;-70
2022/08/10 08:13:00;;;;;;;4.97;2.23;;;;;;;;;;5068784;28;20193;-70
2022/08/10 08:15:26;;;;;;;3.47;1.73;;;;;;;;;;5070462;28;20205;-70
2022/08/10 08:17:54;;;;;;;2.43;2.10;;;;;;;;;;5069866;28;20197;-70
2022/08/10 08:20:22;;;;;;;2.10;1.83;;;;;;;;;;5066936;28;20201;-70
2022/08/10 08:22:49;;;;;;;3.40;2.00;;;;;;;;;;5068970;28;20593;-70
2022/08/10 08:25:16;;;;;;;2.00;1.70;;;;;;;;;;5071657;28;20591;-70
2022/08/10 08:27:43;;;;;;;2.20;2.00;;;;;;;;;;5069150;28;20175;-70
2022/08/10 08:30:09;;;;;;;2.93;2.03;;;;;;;;;;5067444;28;20186;-71
2022/08/10 08:32:39;;;;;;;3.33;1.90;;;;;;;;;;5070102;28;20222;-71
2022/08/10 08:35:07;;;;;;;2.80;2.20;;;;;;;;;;5071454;28;20181;-71
2022/08/10 08:37:36;;;;;;;4.10;2.17;;;;;;;;;;5063544;28;20188;-71
2022/08/10 08:40:04;;;;;;;3.63;2.10;;;;;;;;;;5061483;28;20245;-71
2022/08/10 08:42:36;;;;;;;3.97;2.20;;;;;;;;;;5061063;28;20588;-71
2022/08/10 08:45:24;;;;;;;4.33;2.10;;;;;;;;;;5064387;28;20260;-71
2022/08/10 08:48:17;;;;;;;4.17;2.10;;;;;;;;;;5070995;28;20585;-71
2022/08/10 08:50:55;;;;;;;2.80;2.13;;;;;;;;;;5042488;28;20205;-71
2022/08/10 08:53:33;;;;;;;3.70;2.20;;;;;;;;;;5067749;28;20189;-70
2022/08/10 08:55:59;;;;;;;4.13;2.00;;;;;;;;;;5068123;28;20227;-71
2022/08/10 08:58:28;;;;;;;3.57;2.10;;;;;;;;;;5061926;28;20194;-71
2022/08/10 09:00:54;;;;;;;2.63;2.00;;;;;;;;;;5064680;28;20250;-75
2022/08/10 09:03:23;;;;;;;1.93;1.83;;;;;;;;;;5069423;28;20679;-73
2022/08/10 09:06:08;;;;;;;8.03;2.30;;;;;;;;;;5068664;28;20208;-73
2022/08/10 09:08:40;;;;;;;4.33;2.10;;;;;;;;;;5067645;28;20212;-74
2022/08/10 09:11:18;;;;;;;3.97;2.30;;;;;;;;;;5069399;28;20600;-75
2022/08/10 09:13:54;;;;;;;2.93;2.50;;;;;;;;;;5066592;28;20546;-72
2022/08/10 09:16:26;;;;;;;2.20;2.00;;;;;;;;;;5066656;28;20207;-72
2022/08/10 09:18:59;;;;;;;5.93;2.33;;;;;;;;;;5064920;28;20216;-72
2022/08/10 09:21:36;;;;;;;3.43;2.20;;;;;;;;;;5066858;28;20176;-72
2022/08/10 09:24:05;;;;;;;4.33;2.17;;;;;;;;;;5067179;28;20204;-72
2022/08/10 09:26:35;;;;;;;2.20;2.00;;;;;;;;;;5068468;28;20575;-72
2022/08/10 09:29:02;;;;;;;2.40;2.20;;;;;;;;;;5064182;28;20258;-72
2022/08/10 09:31:33;;;;;;;2.70;2.20;;;;;;;;;;5067288;28;20179;-72
2022/08/10 09:34:07;;;;;;;2.80;2.40;;;;;;;;;;5069506;28;20212;-72
2022/08/10 09:36:41;;;;;;;2.57;2.13;;;;;;;;;;5067512;28;20942;-75
2022/08/10 09:39:15;;;;;;;3.77;2.20;;;;;;;;;;5068377;28;20201;-72
2022/08/10 09:41:57;;;;;;;5.00;2.40;;;;;;;;;;5069837;28;20213;-72
2022/08/10 09:44:27;;;;;;;2.60;2.10;;;;;;;;;;5069355;28;20201;-72
2022/08/10 09:46:59;;;;;;;2.37;2.17;;;;;;;;;;5057349;28;20294;-73
2022/08/10 09:49:43;;;;;;;4.60;2.30;;;;;;;;;;5066226;28;20796;-72
2022/08/10 09:52:12;;;;;;;3.87;2.30;;;;;;;;;;5069017;28;20555;-77
2022/08/10 09:54:47;;;;;;;10.40;2.70;;;;;;;;;;5066748;28;20192;-74
2022/08/10 09:57:29;;;;;;;4.50;2.30;;;;;;;;;;5066543;28;20196;-73
2022/08/10 10:00:08;;;;;;;3.67;2.40;;;;;;;;;;5067385;28;20220;-72
2022/08/10 10:02:43;;;;;;;2.20;1.97;;;;;;;;;;5064376;28;20250;-71
2022/08/10 10:05:27;;;;;;;2.77;2.10;;;;;;;;;;5063609;28;20650;-71
2022/08/10 10:08:00;;;;;;;2.87;2.20;;;;;;;;;;5066527;28;20184;-70
2022/08/10 10:10:45;;;;;;;2.70;2.13;;;;;;;;;;5060254;28;20573;-71
2022/08/10 10:13:34;;;;;;;3.80;2.30;;;;;;;;;;5062250;28;20184;-70
2022/08/10 10:16:13;;;;;;;2.13;1.93;;;;;;;;;;5052338;28;20742;-72
2022/08/10 10:18:49;;;;;;;2.20;1.80;;;;;;;;;;5061098;28;20184;-73
2022/08/10 10:21:33;;;;;;;2.37;2.10;;;;;;;;;;5059330;28;20295;-72
2022/08/10 10:24:12;;;;;;;2.20;2.00;;;;;;;;;;5059591;28;20181;-70
2022/08/10 10:26:49;;;;;;;3.00;2.10;;;;;;;;;;5060626;28;20685;-77
2022/08/10 10:29:28;;;;;;;2.27;1.90;;;;;;;;;;5062897;28;20180;-78
2022/08/10 10:32:03;;;;;;;3.13;2.10;;;;;;;;;;5060680;28;20656;-78
2022/08/10 10:34:38;;;;;;;2.47;2.00;;;;;;;;;;5058454;28;20206;-78
2022/08/10 10:37:05;;;;;;;2.60;2.40;;;;;;;;;;5062627;28;20208;-76
2022/08/10 10:39:35;;;;;;;4.87;2.13;;;;;;;;;;5064346;28;20211;-76
2022/08/10 10:42:13;;;;;;;2.73;2.10;;;;;;;;;;5066040;28;20231;-76
2022/08/10 10:44:50;;;;;;;2.20;2.00;;;;;;;;;;5065849;28;20185;-76
2022/08/10 10:47:45;;;;;;;2.10;1.80;;;;;;;;;;5071067;28;20197;-77
2022/08/10 10:50:17;;;;;;;3.03;2.00;;;;;;;;;;5064506;28;20203;-77
2022/08/10 10:52:53;;;;;;;1.87;1.77;;;;;;;;;;5061724;28;20578;-76
2022/08/10 10:55:36;;;;;;;3.57;2.00;;;;;;;;;;5070680;28;20281;-78
2022/08/10 10:58:16;;;;;;;4.63;2.00;;;;;;;;;;5065962;28;20264;-75
2022/08/10 11:01:01;;;;;;;5.03;2.10;;;;;;;;;;5070741;28;20213;-77
2022/08/10 11:03:45;;;;;;;4.23;2.20;;;;;;;;;;5071069;28;20185;-78
2022/08/10 11:06:18;;;;;;;2.57;2.33;;;;;;;;;;5070819;28;20205;-75
2022/08/10 11:08:48;;;;;;;5.83;2.30;;;;;;;;;;5070305;28;20187;-76
2022/08/10 11:11:19;;;;;;;2.90;2.30;;;;;;;;;;5067934;28;20649;-76
2022/08/10 11:14:11;;;;;;;4.77;2.27;;;;;;;;;;5069845;28;20319;-76
2022/08/10 11:16:42;;;;;;;3.00;2.00;;;;;;;;;;5071547;28;20194;-76
2022/08/10 11:19:19;;;;;;;2.43;2.00;;;;;;;;;;5067466;28;20221;-76
2022/08/10 11:21:51;;;;;;;3.47;1.97;;;;;;;;;;5069458;28;20252;-76
2022/08/10 11:24:36;;;;;;;1.97;1.87;;;;;;;;;;5070465;28;20224;-76
2022/08/10 11:27:11;;;;;;;3.83;2.10;;;;;;;;;;5066642;28;20887;-78
2022/08/10 11:29:55;;;;;;;3.07;2.40;;;;;;;;;;5066455;28;20272;-76
2022/08/10 11:32:31;;;;;;;4.27;2.20;;;;;;;;;;5065470;28;20177;-76
2022/08/10 11:34:57;;;;;;;3.13;2.27;;;;;;;;;;5070336;28;20334;-76
2022/08/10 11:37:36;;;;;;;1.93;1.83;;;;;;;;;;5071012;28;20193;-78
2022/08/10 11:40:20;;;;;;;4.20;2.03;;;;;;;;;;5069365;28;20373;-76
2022/08/10 11:43:05;;;;;;;3.07;2.10;;;;;;;;;;5064155;28;20201;-78
2022/08/10 11:45:35;;;;;;;4.50;2.20;;;;;;;;;;5064405;28;20209;-76
2022/08/10 11:48:12;;;;;;;2.33;2.10;;;;;;;;;;5063136;28;20185;-78
2022/08/10 11:50:38;;;;;;;4.60;2.20;;;;;;;;;;5062813;28;20671;-77
2022/08/10 11:53:28;;;;;;;4.97;2.40;;;;;;;;;;5069482;28;20231;-72
2022/08/10 11:55:56;;;;;;;3.10;1.90;;;;;;;;;;5067574;28;20262;-71
2022/08/10 12:01:10;;;;;;;4.70;2.40;;;;;;;;;;5062159;28;20189;-72
2022/08/10 12:03:37;;;;;;;4.60;1.80;;;;;;;;;;5067399;28;20201;-73
2022/08/10 12:06:04;;;;;;;3.10;2.10;;;;;;;;;;5065302;28;20283;-73
2022/08/10 12:08:31;;;;;;;3.60;2.00;;;;;;;;;;5061689;28;20183;-72
2022/08/10 12:10:57;;;;;;;2.33;2.10;;;;;;;;;;5066294;28;20187;-72
2022/08/10 12:13:25;;;;;;;2.97;2.23;;;;;;;;;;5056975;28;20197;-73
2022/08/10 12:16:01;;;;;;;3.07;2.07;;;;;;;;;;5064601;28;20385;-71
2022/08/10 12:18:31;;;;;;;4.03;2.10;;;;;;;;;;5059956;28;21363;-71
2022/08/10 12:21:00;;;;;;;1.90;1.80;;;;;;;;;;5057322;28;20247;-72
2022/08/10 12:23:42;;;;;;;3.17;2.10;;;;;;;;;;5060627;28;20180;-70
2022/08/10 12:26:13;;;;;;;2.40;2.10;;;;;;;;;;5063265;28;20198;-70
2022/08/10 12:28:42;;;;;;;2.73;2.07;;;;;;;;;;5063865;28;20182;-70
2022/08/10 12:31:10;;;;;;;2.40;2.13;;;;;;;;;;5067725;28;20229;-70
2022/08/10 12:33:45;;;;;;;3.77;2.10;;;;;;;;;;5069784;28;20652;-71
2022/08/10 12:36:35;;;;;;;3.83;1.90;;;;;;;;;;5059729;28;20282;-72
2022/08/10 12:39:03;;;;;;;3.23;1.80;;;;;;;;;;5062047;28;20315;-74
2022/08/10 12:41:31;;;;;;;2.77;1.93;;;;;;;;;;5066070;28;20184;-70
2022/08/10 12:44:00;;;;;;;2.67;1.73;;;;;;;;;;5063509;28;20181;-71
2022/08/10 12:46:49;;;;;;;3.53;2.00;;;;;;;;;;5066403;28;20190;-71
2022/08/10 12:49:50;;;;;;;4.60;2.10;;;;;;;;;;5070843;28;20264;-70
2022/08/10 12:52:19;;;;;;;2.00;1.80;;;;;;;;;;5046229;28;20198;-71
2022/08/10 12:54:49;;;;;;;2.53;2.20;;;;;;;;;;5066361;28;20678;-71
2022/08/10 12:57:17;;;;;;;2.23;2.07;;;;;;;;;;5066717;28;20602;-70
2022/08/10 12:59:49;;;;;;;2.23;1.90;;;;;;;;;;5067214;28;20205;-71
2022/08/10 13:02:26;;;;;;;2.20;2.00;;;;;;;;;;5067434;28;20190;-70
2022/08/10 13:05:06;;;;;;;5.43;4.20;;;;;;;;;;5065156;28;20599;-71
2022/08/10 13:07:46;;;;;;;2.20;1.90;;;;;;;;;;5068451;28;20186;-71
2022/08/10 13:10:17;;;;;;;3.27;1.90;;;;;;;;;;5066267;28;20243;-73
2022/08/10 13:12:48;;;;;;;3.83;1.73;;;;;;;;;;5067950;28;20625;-73
2022/08/10 13:15:18;;;;;;;2.50;1.70;;;;;;;;;;5069677;28;20190;-71
2022/08/10 13:17:48;;;;;;;2.87;1.87;;;;;;;;;;5069600;28;20183;-70
2022/08/10 13:20:18;;;;;;;2.40;1.70;;;;;;;;;;5068316;28;20215;-70
2022/08/10 13:22:47;;;;;;;1.80;1.70;;;;;;;;;;5066294;28;20193;-71
2022/08/10 13:25:16;;;;;;;1.80;1.67;;;;;;;;;;5067252;28;20185;-71
2022/08/10 13:27:43;;;;;;;3.00;1.80;;;;;;;;;;5068593;28;20266;-71
2022/08/10 13:30:10;;;;;;;4.63;1.90;;;;;;;;;;5066563;28;20246;-71
2022/08/10 13:32:38;;;;;;;2.50;1.65;;;;;;;;;;5064461;28;20192;-71
2022/08/10 13:35:10;;;;;;;1.90;1.80;;;;;;;;;;5066873;28;20189;-71
2022/08/10 13:37:42;;;;;;;2.50;1.65;;;;;;;;;;5068974;28;20188;-70
2022/08/10 13:40:17;;;;;;;1.83;1.60;;;;;;;;;;5065095;28;20217;-70
2022/08/10 13:42:52;;;;;;;1.77;1.50;;;;;;;;;;5066029;28;20187;-71
2022/08/10 13:45:20;;;;;;;5.30;1.50;;;;;;;;;;5067123;28;20197;-71
2022/08/10 13:47:49;;;;;;;1.80;1.70;;;;;;;;;;5065847;28;20174;-71
2022/08/10 13:50:23;;;;;;;2.08;1.60;;;;;;;;;;5066726;28;20280;-71
2022/08/10 13:52:55;;;;;;;2.83;1.67;;;;;;;;;;5067266;28;20189;-71
2022/08/10 13:55:27;;;;;;;3.15;1.90;;;;;;;;;;5068282;28;20690;-71
2022/08/10 13:58:00;;;;;;;3.35;1.92;;;;;;;;;;5067494;28;20189;-71
2022/08/10 14:00:39;;;;;;;4.38;1.80;;;;;;;;;;5066963;28;20212;-71
2022/08/10 14:03:13;;;;;;;7.53;1.75;;;;;;;;;;5069102;28;20212;-71
2022/08/10 14:05:54;;;;;;;2.15;1.60;;;;;;;;;;5065533;28;20204;-71
2022/08/10 14:08:28;;;;;;;2.22;1.88;;;;;;;;;;5067135;28;20200;-71
2022/08/10 14:10:59;;;;;;;2.63;1.77;;;;;;;;;;5065539;28;20665;-71
2022/08/10 14:13:30;;;;;;;3.22;1.90;;;;;;;;;;5068944;28;20199;-71
2022/08/10 14:15:57;;;;;;;1.80;1.70;;;;;;;;;;5069454;28;20205;-71
2022/08/10 14:18:27;;;;;;;3.83;1.70;;;;;;;;;;5066527;28;20181;-71
2022/08/10 14:20:56;;;;;;;2.67;1.73;;;;;;;;;;5068741;28;20210;-72
2022/08/10 14:23:27;;;;;;;1.90;1.50;;;;;;;;;;5067315;28;20194;-71
2022/08/10 14:25:56;;;;;;;2.67;1.60;;;;;;;;;;5063522;28;20226;-71
2022/08/10 14:28:25;;;;;;;1.80;1.70;;;;;;;;;;5067620;28;20260;-72
2022/08/10 14:30:58;;;;;;;3.78;1.70;;;;;;;;;;5068299;28;20188;-72
2022/08/10 14:33:31;;;;;;;1.90;1.70;;;;;;;;;;5067918;28;20268;-71
2022/08/10 14:35:58;;;;;;;2.38;1.90;;;;;;;;;;5067356;28;20228;-71
2022/08/10 14:38:29;;;;;;;2.17;1.70;;;;;;;;;;5068899;28;20180;-71
2022/08/10 14:40:57;;;;;;;3.73;1.70;;;;;;;;;;5067937;28;20218;-71
2022/08/10 14:43:26;;;;;;;4.83;1.87;;;;;;;;;;5068865;28;20196;-71
2022/08/10 14:46:02;;;;;;;2.35;1.77;;;;;;;;;;5067507;28;20250;-72
2022/08/10 14:48:33;;;;;;;5.10;1.60;;;;;;;;;;5066745;28;20210;-71
2022/08/10 14:51:01;;;;;;;3.33;1.63;;;;;;;;;;5068260;28;20180;-71
2022/08/10 14:53:31;;;;;;;1.67;1.50;;;;;;;;;;5065203;28;20177;-71
2022/08/10 14:56:00;;;;;;;2.77;1.70;;;;;;;;;;5067071;28;20277;-72
2022/08/10 14:58:35;;;;;;;1.87;1.73;;;;;;;;;;5066279;28;20220;-71
2022/08/10 15:01:03;;;;;;;2.87;1.97;;;;;;;;;;5066303;28;20205;-71
2022/08/10 15:03:32;;;;;;;2.20;2.00;;;;;;;;;;5067483;28;20201;-71
2022/08/10 15:06:01;;;;;;;2.77;1.90;;;;;;;;;;5067220;28;20209;-71
2022/08/10 15:08:29;;;;;;;2.33;1.77;;;;;;;;;;5065805;28;20191;-71
2022/08/10 15:10:57;;;;;;;2.00;1.80;;;;;;;;;;5068351;28;20324;-71